Terminal Aerodrome Forecast
Issued by NWS Paducah, KY

Home | Current Version | Previous Version | Text Only | Print | Product List | Glossary Off
Versions: 1 2 3 4 5 6 7 8 9 10 11 12 13 14 15 16 17 18 19 20 21

173
FTUS43 KPAH 291635 AAA
TAFEVV
TAF AMD
KEVV 291635Z 2917/3012 15014G19KT P6SM SCT035 BKN060
     FM292000 16012G21KT P6SM SCT030
     FM300200 16018KT P6SM FEW030 SCT250=

USA.gov is the U.S. government's official web portal to all federal, state and local government web resources and services.